Accueil
METAR-TAF:

METAR-TAF

Aéroports :

Aéroport de Lyon-Bron

Lyon, France

latitude: 45-43N, longitude: 004-57E, altitude: 200 m

Observation

Le bulletin a été fait il y a 35 minutes, à 18:30 UTC
Vent 3 kt de nord/nord-est
Température 30°C
Humidité 40%
Pression 1018 hPa
Visibilité 10 km ou plus
pas de nuages en-dessous de 1500 mètres et pas de cumulonimbus.

METAR: LFLY 201830Z AUTO 02003KT CAVOK 30/15 Q1018 NOSIG

Heure: 21:05 (19:05 UTC)

Prévision

Le bulletin a été fait il y a 2 heures et 5 minutes, à 17:00 UTC
Prévision valable du 20 à 18 UTC au 21 à 18 UTC
Vent 5 kt de est/nord-est
Visibilité 10 km ou plus
pas de nuages en-dessous de 1500 mètres et pas de cumulonimbus.
Evoluant progressivement
du 21 à 08 UTC au 21 à 11 UTC
Vent 13 kt de nord

TAF: LFLY 201700Z 2018/2118 06005KT CAVOK BECMG 2108/2111 36013KT

Observations et prévisions météorologiques de plus de 4000 aéroports (messages METAR et TAF).

Les stations disponibles sont représentées par des disques jaunes et rouges sur la carte.

Passer la souris dessus pour voir le nom de la station.

Cliquer dessus pour voir les observations et prévisions météorologiques.

Pour changer de carte: cliquez sur les boutons verts avec une croix noire pour zoomer, sur le bouton vert avec un tiret pour effectuer un zoom arrière, ou sur les flèches vertes pour les cartes adjacentes.


METAR-TAF: